Time;durP1;ratioP1;P1;durP2;ratioP2;P2;SDS_P1;SDS_P2;PMS_P1;PMS_P2;Temp;Humidity;BMP_temperature;BMP_pressure;BME280_temperature;BME280_humidity;BME280_pressure;Samples;Min_cycle;Max_cycle;Signal;HPM_P1;HPM_P2
2023/12/13 00:01:51;;;;;;;51.90;27.80;;;;;;;7.22;68.88;99011.94;5032342;27;97160;-78
2023/12/13 00:04:16;;;;;;;52.03;27.25;;;;;;;7.06;68.93;99019.53;5031638;27;97314;-78
2023/12/13 00:06:41;;;;;;;52.30;29.13;;;;;;;7.05;69.58;99011.78;5013738;28;101012;-79
2023/12/13 00:09:10;;;;;;;53.05;28.45;;;;;;;7.14;69.08;99024.47;5023699;27;97377;-79
2023/12/13 00:11:36;;;;;;;47.15;27.13;;;;;;;7.16;68.95;99023.50;5035693;27;97004;-78
2023/12/13 00:14:01;;;;;;;51.03;28.27;;;;;;;7.16;68.98;99018.28;5033538;27;98203;-79
2023/12/13 00:16:27;;;;;;;51.28;28.92;;;;;;;7.16;68.99;99005.22;5038030;27;97924;-79
2023/12/13 00:18:52;;;;;;;50.60;28.30;;;;;;;7.23;68.34;98992.75;5021015;27;101329;-79
2023/12/13 00:21:18;;;;;;;51.03;26.85;;;;;;;7.20;68.34;98998.09;5019476;27;97391;-78
2023/12/13 00:23:47;;;;;;;50.70;26.77;;;;;;;7.29;68.44;98995.09;5020852;27;97090;-78
2023/12/13 00:26:15;;;;;;;50.45;27.73;;;;;;;7.11;68.63;98983.66;5034075;27;99087;-79
2023/12/13 00:28:40;;;;;;;46.10;26.42;;;;;;;7.25;68.12;98973.50;5007996;27;101423;-78
2023/12/13 00:31:06;;;;;;;48.17;27.23;;;;;;;7.08;68.32;98975.13;5014259;27;96900;-78
2023/12/13 00:33:33;;;;;;;43.63;25.05;;;;;;;7.25;68.48;98983.13;5033061;27;97624;-80
2023/12/13 00:35:58;;;;;;;45.38;23.77;;;;;;;7.23;68.17;98969.25;5015391;27;97650;-79
2023/12/13 00:38:24;;;;;;;52.15;25.92;;;;;;;7.07;68.23;98966.47;5000351;27;102278;-79
2023/12/13 00:40:50;;;;;;;48.70;24.70;;;;;;;7.24;67.80;98978.78;5011929;27;96734;-79
2023/12/13 00:43:16;;;;;;;45.72;25.48;;;;;;;7.21;68.31;98974.56;5019309;27;96977;-78
2023/12/13 00:45:41;;;;;;;46.88;25.23;;;;;;;7.09;68.23;98962.00;5038336;27;97878;-78
2023/12/13 00:48:08;;;;;;;44.00;23.20;;;;;;;7.13;68.05;98966.19;5021345;27;97337;-78
2023/12/13 00:50:34;;;;;;;44.13;22.83;;;;;;;7.26;67.92;98977.81;5017664;27;97228;-78
2023/12/13 00:52:59;;;;;;;46.60;23.48;;;;;;;7.33;67.87;98973.19;5034983;27;96751;-78
2023/12/13 00:55:25;;;;;;;45.72;23.45;;;;;;;7.23;67.71;98953.59;5051148;27;97377;-78
2023/12/13 00:57:51;;;;;;;46.80;23.70;;;;;;;7.37;67.60;98971.31;5020088;27;101051;-77
2023/12/13 01:00:17;;;;;;;46.30;22.50;;;;;;;7.40;67.03;98968.56;5048096;27;97410;-79
2023/12/13 01:02:42;;;;;;;43.85;24.00;;;;;;;7.35;67.35;98954.84;5035620;27;97225;-78
2023/12/13 01:05:08;;;;;;;45.70;22.83;;;;;;;7.38;67.32;98971.22;5016936;28;101205;-77
2023/12/13 01:07:34;;;;;;;46.15;22.83;;;;;;;7.48;67.13;98959.50;5024922;27;98137;-78
2023/12/13 01:09:59;;;;;;;50.70;24.15;;;;;;;7.39;66.69;98944.22;5040767;27;97246;-78
2023/12/13 01:12:25;;;;;;;41.50;21.52;;;;;;;7.39;66.74;98948.59;5023873;27;96976;-78
2023/12/13 01:14:50;;;;;;;40.88;22.75;;;;;;;7.52;66.29;98944.53;5020165;27;97585;-78
2023/12/13 01:17:16;;;;;;;46.55;23.95;;;;;;;7.57;66.25;98955.63;5019777;27;100695;-79
2023/12/13 01:19:42;;;;;;;45.38;22.83;;;;;;;7.64;66.38;98964.03;5020154;27;97659;-77
2023/12/13 01:22:10;;;;;;;42.72;24.55;;;;;;;7.39;66.62;98944.22;5020012;27;97051;-77
2023/12/13 01:24:36;;;;;;;45.33;23.42;;;;;;;7.31;66.77;98961.13;5035696;27;101073;-77
2023/12/13 01:27:02;;;;;;;45.75;24.08;;;;;;;7.42;66.92;98954.53;5002722;27;101249;-77
2023/12/13 01:29:29;;;;;;;41.20;23.85;;;;;;;7.45;66.49;98940.50;5000009;28;97463;-77
2023/12/13 01:31:54;;;;;;;43.58;22.83;;;;;;;7.61;66.49;98945.91;5016272;27;96895;-77
2023/12/13 01:34:20;;;;;;;52.58;24.35;;;;;;;7.56;66.26;98937.41;5036834;27;98032;-78
2023/12/13 01:36:45;;;;;;;50.72;25.70;;;;;;;7.55;65.97;98933.09;5036082;27;98096;-78
2023/12/13 01:39:13;;;;;;;43.72;23.80;;;;;;;7.62;65.96;98939.75;5002546;27;96926;-77
2023/12/13 01:41:38;;;;;;;48.08;24.60;;;;;;;7.53;66.35;98930.56;5020016;27;97359;-77
2023/12/13 01:44:04;;;;;;;48.45;24.85;;;;;;;7.40;66.28;98916.34;5036784;27;97593;-77
2023/12/13 01:46:31;;;;;;;46.60;24.90;;;;;;;7.46;65.99;98921.31;5035807;27;100766;-77
2023/12/13 01:48:56;;;;;;;47.63;25.50;;;;;;;7.33;66.49;98933.16;5036968;27;96769;-77
2023/12/13 01:51:22;;;;;;;44.45;25.40;;;;;;;7.24;66.36;98914.41;5016426;28;97278;-77
2023/12/13 01:53:48;;;;;;;50.85;25.15;;;;;;;7.19;66.83;98918.97;5051574;27;97506;-78
2023/12/13 01:56:14;;;;;;;48.30;24.63;;;;;;;6.98;67.23;98898.97;5035588;27;97416;-77
2023/12/13 01:58:40;;;;;;;45.28;24.80;;;;;;;7.07;67.03;98885.56;5019904;27;96902;-77
2023/12/13 02:01:09;;;;;;;47.63;23.73;;;;;;;7.15;66.81;98909.53;5036224;27;96911;-77
2023/12/13 02:03:40;;;;;;;49.50;24.35;;;;;;;7.04;66.84;98877.88;5021088;27;98531;-76
2023/12/13 02:06:06;;;;;;;44.05;24.00;;;;;;;7.26;66.71;98912.56;5022244;27;101177;-77
2023/12/13 02:08:32;;;;;;;42.55;23.10;;;;;;;7.15;66.66;98896.50;5020286;27;97553;-77
2023/12/13 02:10:58;;;;;;;45.33;23.38;;;;;;;7.26;66.63;98914.31;5022478;27;97282;-77
2023/12/13 02:13:24;;;;;;;46.28;23.98;;;;;;;6.98;66.89;98886.81;5019453;27;97783;-78
2023/12/13 02:15:49;;;;;;;46.38;24.17;;;;;;;7.02;67.18;98904.00;5035476;27;97421;-77
2023/12/13 02:18:15;;;;;;;45.15;26.27;;;;;;;6.97;67.29;98900.75;5019594;27;96909;-77
2023/12/13 02:20:41;;;;;;;47.08;24.05;;;;;;;6.78;68.07;98879.81;5002022;27;96891;-77
2023/12/13 02:23:07;;;;;;;44.55;23.58;;;;;;;6.94;67.71;98890.44;5019774;27;97450;-77
2023/12/13 02:25:36;;;;;;;46.58;24.33;;;;;;;7.01;67.80;98891.00;5018293;27;97255;-79
2023/12/13 02:28:02;;;;;;;42.55;23.10;;;;;;;6.87;67.63;98873.34;5036258;27;97056;-77
2023/12/13 02:30:28;;;;;;;43.13;23.40;;;;;;;7.01;67.90;98880.56;5018985;27;96877;-78
2023/12/13 02:32:54;;;;;;;40.85;22.98;;;;;;;7.20;66.81;98880.66;5035792;27;98008;-78
2023/12/13 02:35:21;;;;;;;48.00;24.20;;;;;;;7.14;67.13;98880.94;5018623;27;97576;-77
2023/12/13 02:37:49;;;;;;;42.40;21.83;;;;;;;7.07;66.91;98864.69;5036248;27;96751;-77
2023/12/13 02:40:18;;;;;;;48.67;22.88;;;;;;;7.03;67.35;98881.38;5002784;27;97059;-77
2023/12/13 02:42:44;;;;;;;40.65;20.85;;;;;;;7.07;67.51;98888.19;5035676;27;98610;-77
2023/12/13 02:45:13;;;;;;;44.63;22.13;;;;;;;7.11;67.22;98881.06;5017979;27;101860;-77
2023/12/13 02:47:42;;;;;;;42.72;21.90;;;;;;;7.29;66.81;98885.47;5036399;27;96751;-77
2023/12/13 02:50:11;;;;;;;37.42;20.42;;;;;;;7.18;66.95;98870.28;5017815;27;96909;-77
2023/12/13 02:52:40;;;;;;;43.65;22.08;;;;;;;7.18;66.62;98867.66;5018594;27;101535;-77
2023/12/13 02:55:07;;;;;;;43.58;21.40;;;;;;;7.17;66.96;98872.97;5034153;27;97590;-77
2023/12/13 02:57:32;;;;;;;38.35;20.52;;;;;;;7.12;67.03;98873.16;5019258;27;96740;-77
2023/12/13 02:59:58;;;;;;;37.45;19.33;;;;;;;7.13;67.08;98867.03;5016447;27;97234;-78
2023/12/13 03:02:24;;;;;;;40.42;21.63;;;;;;;7.18;66.97;98856.38;5015922;28;97380;-78
2023/12/13 03:04:50;;;;;;;39.75;20.45;;;;;;;7.05;67.11;98857.84;4999765;28;101995;-78
2023/12/13 03:07:15;;;;;;;41.15;20.17;;;;;;;7.15;66.97;98864.34;5012834;28;97205;-77
2023/12/13 03:09:41;;;;;;;38.10;19.13;;;;;;;7.00;67.40;98853.66;4995292;28;97289;-77
2023/12/13 03:12:06;;;;;;;40.22;20.17;;;;;;;7.12;67.25;98851.44;5011867;28;97982;-77
2023/12/13 03:14:32;;;;;;;35.28;19.90;;;;;;;6.93;67.09;98839.19;4993440;28;101147;-77
2023/12/13 03:16:57;;;;;;;35.72;18.90;;;;;;;6.85;67.50;98848.25;5012189;28;97257;-77
2023/12/13 03:19:24;;;;;;;41.25;19.00;;;;;;;6.84;67.61;98850.00;5012478;28;96987;-80
2023/12/13 03:21:50;;;;;;;36.22;17.95;;;;;;;6.88;67.70;98835.91;4975597;28;97879;-77
2023/12/13 03:24:15;;;;;;;36.30;17.33;;;;;;;6.94;67.89;98840.03;5011145;28;100874;-77
2023/12/13 03:26:41;;;;;;;44.58;19.45;;;;;;;6.85;67.75;98807.34;5013110;28;97072;-77
2023/12/13 03:29:07;;;;;;;38.17;18.05;;;;;;;6.89;67.23;98805.44;4998446;28;97989;-78
2023/12/13 03:31:32;;;;;;;38.30;18.70;;;;;;;7.01;67.35;98825.78;4988396;28;101325;-78
2023/12/13 03:34:00;;;;;;;38.33;18.17;;;;;;;7.07;67.40;98814.25;5007609;28;97849;-79
2023/12/13 03:36:26;;;;;;;34.47;17.23;;;;;;;7.00;67.13;98808.44;4977287;28;96944;-78
2023/12/13 03:38:52;;;;;;;44.67;17.80;;;;;;;7.03;67.17;98818.75;4990293;28;96849;-79
2023/12/13 03:41:18;;;;;;;35.72;17.33;;;;;;;6.89;67.68;98811.50;4990224;28;101474;-76
2023/12/13 03:43:43;;;;;;;36.60;17.50;;;;;;;7.01;67.18;98805.78;4989629;28;101601;-78
2023/12/13 03:46:09;;;;;;;33.83;16.77;;;;;;;6.96;67.20;98818.19;5007925;28;96721;-78
2023/12/13 03:48:34;;;;;;;42.00;18.20;;;;;;;6.84;67.85;98797.00;5006982;28;96750;-79
2023/12/13 03:51:01;;;;;;;45.40;17.52;;;;;;;7.00;67.76;98805.84;4975190;28;101528;-78
2023/12/13 03:53:27;;;;;;;33.95;17.15;;;;;;;6.96;67.49;98799.06;4992550;28;101056;-77
2023/12/13 03:55:52;;;;;;;38.95;18.20;;;;;;;6.94;67.36;98788.69;5009558;28;97333;-78
2023/12/13 03:58:18;;;;;;;39.08;18.23;;;;;;;7.02;67.04;98804.88;4995105;28;97329;-79
2023/12/13 04:00:43;;;;;;;33.75;15.70;;;;;;;6.95;67.49;98793.00;5004604;28;97413;-78
2023/12/13 04:03:09;;;;;;;33.80;16.45;;;;;;;6.98;67.52;98797.22;5009688;28;96794;-78
2023/12/13 04:05:34;;;;;;;38.25;17.73;;;;;;;7.00;67.53;98791.03;5028382;27;96895;-78
2023/12/13 04:08:00;;;;;;;32.28;16.63;;;;;;;6.98;67.89;98789.41;5035827;27;96756;-77
2023/12/13 04:10:26;;;;;;;35.63;17.13;;;;;;;7.02;67.65;98796.19;5033241;27;97506;-78
2023/12/13 04:12:52;;;;;;;33.53;15.48;;;;;;;6.87;67.92;98791.66;5031255;27;98053;-79
2023/12/13 04:15:17;;;;;;;31.85;17.02;;;;;;;6.92;67.79;98777.50;5028662;27;96803;-78
2023/12/13 04:17:43;;;;;;;32.60;16.55;;;;;;;6.78;68.21;98772.03;5017999;28;97385;-78
2023/12/13 04:20:09;;;;;;;40.40;18.40;;;;;;;6.73;68.53;98790.47;5029999;27;98037;-78
2023/12/13 04:22:35;;;;;;;43.33;18.35;;;;;;;6.77;68.63;98791.19;5030808;28;100890;-78
2023/12/13 04:25:00;;;;;;;33.95;17.30;;;;;;;6.66;69.17;98786.44;5016525;28;96762;-78
2023/12/13 04:27:25;;;;;;;39.03;16.55;;;;;;;6.80;68.64;98791.03;5028502;27;96854;-78
2023/12/13 04:29:51;;;;;;;36.90;17.02;;;;;;;6.85;68.27;98777.81;5017356;28;97490;-78
2023/12/13 04:32:17;;;;;;;36.28;17.20;;;;;;;6.98;68.18;98792.88;5016915;27;97406;-78
2023/12/13 04:34:43;;;;;;;40.25;17.17;;;;;;;7.08;67.74;98795.06;5015662;28;97172;-78
2023/12/13 04:37:09;;;;;;;35.05;16.45;;;;;;;7.02;67.81;98780.53;5017860;27;97715;-78
2023/12/13 04:39:35;;;;;;;32.47;16.35;;;;;;;7.07;67.98;98782.94;5011222;28;101511;-78
2023/12/13 04:42:00;;;;;;;35.88;16.73;;;;;;;6.93;67.73;98776.56;5017233;28;98244;-78
2023/12/13 04:44:27;;;;;;;38.80;17.05;;;;;;;6.81;68.42;98761.47;5028567;27;96951;-77
2023/12/13 04:47:02;;;;;;;32.50;15.88;;;;;;;6.76;68.63;98774.69;5011427;28;97333;-77
2023/12/13 04:49:27;;;;;;;35.60;16.85;;;;;;;6.90;68.70;98768.03;4997037;28;101321;-77
2023/12/13 04:51:53;;;;;;;36.47;16.08;;;;;;;6.82;68.50;98741.44;5014869;28;99071;-77
2023/12/13 04:54:21;;;;;;;32.10;15.68;;;;;;;7.08;67.88;98751.56;5013261;27;97956;-77
2023/12/13 04:56:47;;;;;;;35.63;16.48;;;;;;;7.03;68.23;98749.16;5027545;28;97530;-77
2023/12/13 04:59:12;;;;;;;35.50;16.63;;;;;;;6.83;68.39;98736.13;4997715;27;99737;-78
2023/12/13 05:01:38;;;;;;;31.05;15.32;;;;;;;7.10;68.31;98751.47;5029247;27;97619;-77
2023/12/13 05:04:04;;;;;;;32.10;16.05;;;;;;;7.07;68.60;98749.88;5007249;28;96880;-78
2023/12/13 05:06:29;;;;;;;33.08;15.75;;;;;;;7.17;67.92;98745.94;5025468;28;96543;-77
2023/12/13 05:08:55;;;;;;;33.85;15.65;;;;;;;7.15;68.08;98752.97;5023369;28;101617;-79
2023/12/13 05:11:20;;;;;;;35.33;15.95;;;;;;;7.20;68.06;98743.19;5022202;28;101744;-80
2023/12/13 05:13:46;;;;;;;32.40;16.90;;;;;;;7.18;68.28;98745.00;5023039;28;96837;-78
2023/12/13 05:16:11;;;;;;;35.85;16.40;;;;;;;7.09;68.22;98745.41;5022479;28;96751;-81
2023/12/13 05:18:37;;;;;;;36.08;16.65;;;;;;;6.88;68.93;98743.78;5037907;28;96934;-78
2023/12/13 05:21:02;;;;;;;35.25;15.88;;;;;;;6.99;69.09;98747.59;5006147;28;100975;-78
2023/12/13 05:23:28;;;;;;;32.05;15.52;;;;;;;7.02;68.76;98746.63;5025721;28;96679;-78
2023/12/13 05:25:54;;;;;;;28.75;16.30;;;;;;;6.90;69.43;98745.41;5023138;28;96897;-78
2023/12/13 05:28:19;;;;;;;39.10;15.98;;;;;;;7.01;68.89;98737.94;5006608;28;101748;-78
2023/12/13 05:34:33;;;;;;;39.42;15.43;;;;;;;7.05;69.19;98723.00;5021578;28;96588;-79
2023/12/13 05:36:59;;;;;;;29.63;16.05;;;;;;;6.97;69.43;98712.91;5025360;28;96843;-78
2023/12/13 05:39:24;;;;;;;36.55;16.05;;;;;;;6.95;69.43;98712.13;5024072;28;98562;-79
2023/12/13 05:41:50;;;;;;;35.00;16.40;;;;;;;6.92;69.67;98711.41;5005846;28;100250;-79
2023/12/13 05:44:15;;;;;;;31.00;15.35;;;;;;;6.93;69.69;98716.56;5004557;28;96665;-79
2023/12/13 05:46:49;;;;;;;34.03;16.38;;;;;;;7.03;69.79;98712.63;5028398;28;96766;-82
2023/12/13 05:49:15;;;;;;;34.17;17.08;;;;;;;6.83;70.17;98709.22;5014043;28;99938;-81
2023/12/13 05:51:40;;;;;;;33.50;15.07;;;;;;;6.80;70.88;98723.22;5029323;28;101392;-81
2023/12/13 05:54:06;;;;;;;35.15;15.43;;;;;;;6.88;70.82;98722.91;5012484;28;96612;-81
2023/12/13 05:56:32;;;;;;;38.22;15.65;;;;;;;6.67;71.01;98714.28;5006607;28;96819;-81
2023/12/13 05:58:57;;;;;;;33.35;15.45;;;;;;;6.85;71.13;98710.84;5023019;28;101680;-82
2023/12/13 06:01:23;;;;;;;31.65;15.38;;;;;;;6.85;70.94;98720.44;5026619;28;100591;-80
2023/12/13 06:03:50;;;;;;;32.42;15.38;;;;;;;6.80;70.96;98718.84;5016469;27;96578;-80
2023/12/13 06:06:26;;;;;;;26.30;13.07;;;;;;;6.76;71.32;98727.75;5040240;27;96807;-82
2023/12/13 06:08:52;;;;;;;29.77;14.75;;;;;;;6.70;71.83;98727.16;5037466;27;100309;-78
2023/12/13 06:11:18;;;;;;;25.98;12.77;;;;;;;6.84;71.72;98723.97;5037352;27;100246;-76
2023/12/13 06:13:43;;;;;;;23.98;11.93;;;;;;;6.80;71.83;98718.00;5061673;27;96625;-76
2023/12/13 06:16:12;;;;;;;26.75;12.98;;;;;;;6.69;72.05;98709.81;5043446;27;96646;-77
2023/12/13 06:18:38;;;;;;;32.65;12.60;;;;;;;6.62;72.70;98706.63;5026713;27;97741;-77
2023/12/13 06:21:06;;;;;;;27.42;11.63;;;;;;;6.65;72.69;98711.72;5026478;27;97652;-76
2023/12/13 06:23:31;;;;;;;27.73;13.00;;;;;;;6.67;72.67;98701.22;5027279;27;96673;-77
2023/12/13 06:25:57;;;;;;;24.60;12.10;;;;;;;6.57;73.28;98713.78;5061574;27;96794;-77
2023/12/13 06:28:23;;;;;;;31.80;13.00;;;;;;;6.54;73.39;98698.28;5062540;27;97887;-76
2023/12/13 06:30:48;;;;;;;27.70;10.93;;;;;;;6.68;73.21;98706.34;5042571;27;101075;-76
2023/12/13 06:33:16;;;;;;;22.95;11.70;;;;;;;6.56;73.39;98693.88;5026132;27;96997;-77
2023/12/13 06:35:42;;;;;;;26.05;11.95;;;;;;;6.59;73.37;98696.34;5010030;27;96906;-76
2023/12/13 06:38:07;;;;;;;22.45;11.90;;;;;;;6.68;73.06;98698.53;5024913;27;100449;-76
2023/12/13 06:40:33;;;;;;;23.27;11.43;;;;;;;6.71;72.89;98703.63;5026655;27;101235;-76
2023/12/13 06:42:58;;;;;;;25.08;11.25;;;;;;;6.64;73.18;98696.16;5061662;27;96515;-76
2023/12/13 06:45:24;;;;;;;33.83;11.93;;;;;;;6.74;73.11;98705.25;5060773;27;96835;-77
2023/12/13 06:47:51;;;;;;;28.75;11.82;;;;;;;6.94;72.63;98702.59;5064055;27;97826;-80
2023/12/13 08:38:40;;;;;;;32.10;15.60;;;;;;;7.26;73.58;98671.59;4854304;29;99593;-77
2023/12/13 08:41:09;;;;;;;34.20;16.35;;;;;;;7.32;73.47;98673.06;4825198;29;97835;-77
2023/12/13 08:43:35;;;;;;;40.00;17.45;;;;;;;7.39;72.89;98671.88;4824461;29;97989;-78
2023/12/13 08:46:01;;;;;;;35.95;18.35;;;;;;;7.50;72.66;98666.97;4829194;29;97446;-78
2023/12/13 08:48:27;;;;;;;30.75;15.68;;;;;;;7.51;71.86;98673.06;4835203;28;98224;-79
2023/12/13 08:50:52;;;;;;;32.15;16.25;;;;;;;7.54;71.76;98673.75;4848647;28;100677;-79
2023/12/13 08:53:18;;;;;;;29.90;15.43;;;;;;;7.52;71.31;98672.13;4847374;29;96814;-79
2023/12/13 08:55:43;;;;;;;34.97;16.25;;;;;;;7.57;71.23;98671.00;4867610;28;97246;-79
2023/12/13 08:58:11;;;;;;;34.03;16.92;;;;;;;7.48;71.38;98661.84;4863994;28;97051;-80
2023/12/13 09:00:37;;;;;;;31.52;16.17;;;;;;;7.55;71.13;98670.22;4851290;29;100610;-81
2023/12/13 09:03:03;;;;;;;29.45;15.38;;;;;;;7.74;70.87;98669.31;4864266;29;96719;-80
2023/12/13 09:05:33;;;;;;;31.98;15.32;;;;;;;7.80;70.94;98669.88;4849340;29;96750;-80
2023/12/13 09:08:06;;;;;;;33.28;15.40;;;;;;;7.85;70.39;98673.13;4851598;29;97682;-81
2023/12/13 09:10:35;;;;;;;35.67;16.83;;;;;;;7.86;70.20;98677.41;4851425;29;98531;-84
2023/12/13 09:13:02;;;;;;;41.90;18.08;;;;;;;7.62;69.79;98673.38;4847163;28;96675;-80
2023/12/13 09:16:12;;;;;;;36.22;15.48;;;;;;;7.64;69.93;98677.59;4862448;28;97020;-80
2023/12/13 09:18:42;;;;;;;30.90;15.18;;;;;;;7.81;71.22;98683.78;4881924;28;96815;-77
2023/12/13 09:49:26;;;;;;;26.60;14.80;;;;;;;8.18;68.94;98666.28;5579302;23;99963;-81
2023/12/13 09:51:53;;;;;;;27.52;14.40;;;;;;;8.19;68.72;98681.88;4870890;28;98265;-80
2023/12/13 09:54:18;;;;;;;30.15;14.23;;;;;;;8.17;68.82;98675.88;4851558;28;101166;-82
2023/12/13 09:57:21;;;;;;;29.60;15.15;;;;;;;8.35;69.02;98668.91;4868312;29;96635;-81
2023/12/13 09:59:47;;;;;;;28.50;14.75;;;;;;;8.11;69.25;98671.81;4892116;28;96853;-79
2023/12/13 10:02:15;;;;;;;33.10;16.00;;;;;;;7.92;69.60;98671.88;4854419;28;98001;-79
2023/12/13 10:04:43;;;;;;;34.58;15.88;;;;;;;7.86;69.98;98666.97;4852667;28;101192;-79
2023/12/13 10:07:09;;;;;;;29.42;14.60;;;;;;;7.79;70.47;98659.50;4832513;28;96748;-80
2023/12/13 10:09:35;;;;;;;28.95;15.45;;;;;;;7.88;70.42;98661.66;4869927;28;96820;-80
2023/12/13 10:12:01;;;;;;;31.55;16.33;;;;;;;8.00;69.67;98662.81;4865449;28;97925;-79
2023/12/13 10:14:34;;;;;;;34.17;15.80;;;;;;;8.12;69.61;98657.00;4878075;28;96816;-79
2023/12/13 10:17:02;;;;;;;35.28;17.40;;;;;;;8.03;69.85;98660.03;4858355;28;96807;-81
2023/12/13 10:19:27;;;;;;;32.72;16.10;;;;;;;8.21;69.56;98646.06;4853807;28;96689;-81
2023/12/13 10:58:02;;;;;;;33.92;17.05;;;;;;;7.79;74.04;98630.75;4902369;23;97158;-80
2023/12/13 11:00:27;;;;;;;30.65;17.13;;;;;;;7.89;74.25;98629.41;4884870;28;96561;-80
2023/12/13 11:02:59;;;;;;;32.58;18.17;;;;;;;7.99;73.97;98622.78;4869674;28;96604;-80
2023/12/13 11:05:24;;;;;;;34.30;17.65;;;;;;;7.90;74.34;98621.47;4862953;28;99642;-80
2023/12/13 11:07:52;;;;;;;40.13;18.67;;;;;;;7.90;74.34;98618.84;4879894;28;98048;-80
2023/12/13 11:14:26;;;;;;;29.40;16.25;;;;;;;8.09;73.61;98624.00;4900274;28;96546;-80
2023/12/13 11:17:29;;;;;;;35.88;17.80;;;;;;;8.09;74.03;98623.16;4866695;28;99382;-80
2023/12/13 11:19:55;;;;;;;30.83;17.20;;;;;;;8.24;73.76;98630.22;4863899;28;100802;-80
2023/12/13 11:22:24;;;;;;;35.35;18.73;;;;;;;8.13;74.59;98628.16;4880688;28;96529;-79
2023/12/13 11:25:10;;;;;;;30.30;17.90;;;;;;;8.06;74.61;98632.00;4853317;28;96999;-79
2023/12/13 11:27:36;;;;;;;31.20;17.45;;;;;;;7.96;75.36;98619.47;4855078;28;99753;-80
2023/12/13 11:30:13;;;;;;;33.85;18.67;;;;;;;8.05;76.43;98617.22;4870371;28;97740;-80
2023/12/13 11:32:42;;;;;;;36.58;18.88;;;;;;;7.98;76.00;98609.81;4874619;28;96669;-80
2023/12/13 11:35:16;;;;;;;33.75;19.25;;;;;;;7.94;76.08;98609.97;4871648;28;96884;-80
2023/12/13 11:37:53;;;;;;;33.42;17.83;;;;;;;8.23;75.45;98607.63;4840516;28;101496;-80
2023/12/13 11:40:20;;;;;;;28.45;16.88;;;;;;;8.38;74.91;98603.38;4870907;28;97974;-79
2023/12/13 11:42:47;;;;;;;28.60;18.15;;;;;;;8.39;75.43;98608.53;4877781;28;96649;-79
2023/12/13 11:45:13;;;;;;;32.22;18.30;;;;;;;8.48;74.95;98606.38;4852131;28;96997;-79
2023/12/13 11:47:54;;;;;;;34.60;19.52;;;;;;;8.33;75.33;98608.00;4851785;28;101193;-79
2023/12/13 11:50:44;;;;;;;29.13;18.52;;;;;;;8.21;75.76;98606.84;4836326;28;101349;-79
2023/12/13 11:53:10;;;;;;;24.92;17.25;;;;;;;8.22;75.95;98612.94;4885041;28;96634;-79
2023/12/13 11:55:36;;;;;;;33.15;18.65;;;;;;;8.29;75.92;98614.28;4867689;28;96528;-79
2023/12/13 11:58:03;;;;;;;31.95;18.80;;;;;;;8.36;75.75;98619.13;4884125;28;98008;-79
2023/12/13 12:00:29;;;;;;;31.75;18.08;;;;;;;8.47;75.33;98613.38;4835963;29;101592;-80
2023/12/13 12:02:55;;;;;;;27.27;18.15;;;;;;;8.47;75.05;98609.94;4866369;28;96784;-80
2023/12/13 12:05:24;;;;;;;29.40;18.48;;;;;;;8.60;74.64;98600.50;4857257;28;96971;-78
2023/12/13 12:08:02;;;;;;;28.92;18.30;;;;;;;8.47;74.93;98610.75;4827206;28;101317;-78
2023/12/13 12:10:36;;;;;;;30.33;17.65;;;;;;;8.64;74.84;98606.41;4858923;29;97518;-78
2023/12/13 12:13:10;;;;;;;27.45;17.45;;;;;;;8.64;74.58;98598.53;4838612;28;96924;-78
2023/12/13 12:15:36;;;;;;;25.50;16.92;;;;;;;8.51;74.79;98598.38;4851128;28;96880;-79
2023/12/13 12:18:05;;;;;;;28.38;15.82;;;;;;;8.50;75.03;98600.13;4850444;28;101601;-78
2023/12/13 12:20:30;;;;;;;26.17;16.38;;;;;;;8.57;74.79;98604.09;4848489;28;101585;-78
2023/12/13 12:22:58;;;;;;;29.02;17.55;;;;;;;8.42;74.78;98601.47;4855073;28;96872;-78
2023/12/13 12:25:25;;;;;;;29.65;17.95;;;;;;;8.28;75.60;98600.38;4855669;28;96823;-78
2023/12/13 12:28:00;;;;;;;34.38;20.10;;;;;;;8.30;75.22;98603.75;4848902;28;97690;-78
2023/12/13 12:30:25;;;;;;;29.05;18.90;;;;;;;8.43;75.08;98603.97;4855731;28;101559;-78
2023/12/13 12:32:51;;;;;;;28.35;17.05;;;;;;;8.34;75.26;98599.22;4863614;28;97059;-78
2023/12/13 12:35:17;;;;;;;30.85;16.77;;;;;;;8.44;75.05;98602.25;4863757;28;97127;-78
2023/12/13 12:37:42;;;;;;;26.42;17.58;;;;;;;8.55;75.39;98599.88;4862548;28;100135;-80
2023/12/13 12:40:09;;;;;;;26.92;18.02;;;;;;;8.65;74.54;98605.47;4853246;29;99526;-80
2023/12/13 12:42:42;;;;;;;27.95;17.40;;;;;;;8.68;74.62;98598.31;4880719;28;96830;-81
2023/12/13 12:45:07;;;;;;;27.42;17.33;;;;;;;8.76;74.34;98595.28;4861813;28;96660;-80
2023/12/13 12:47:33;;;;;;;31.67;17.40;;;;;;;8.87;73.67;98602.53;4885468;28;100874;-81
2023/12/13 12:49:59;;;;;;;25.05;17.45;;;;;;;8.92;74.44;98600.53;4875220;28;96788;-79
2023/12/13 12:52:24;;;;;;;29.67;17.15;;;;;;;8.95;73.76;98601.19;4853557;28;96750;-80
2023/12/13 12:54:50;;;;;;;25.20;16.73;;;;;;;8.79;73.93;98601.19;4837910;28;96906;-78
2023/12/13 12:57:16;;;;;;;26.10;16.20;;;;;;;8.78;74.13;98594.25;4866360;28;97924;-79
2023/12/13 12:59:41;;;;;;;31.38;17.83;;;;;;;8.87;73.36;98599.94;4838933;28;101580;-80
2023/12/13 13:19:31;;;;;;;25.48;17.65;;;;;;;8.85;74.40;98605.25;5552567;23;98924;-79
2023/12/13 13:21:56;;;;;;;30.95;19.65;;;;;;;8.77;74.20;98612.66;4846576;29;100870;-79
2023/12/13 13:24:32;;;;;;;31.05;19.23;;;;;;;8.82;74.20;98613.28;4821286;29;96728;-79
2023/12/13 13:26:57;;;;;;;27.85;18.60;;;;;;;8.82;74.02;98606.28;4831511;29;96856;-80
2023/12/13 13:29:29;;;;;;;26.67;18.58;;;;;;;8.77;74.18;98610.06;4852027;29;98069;-80
2023/12/13 13:31:54;;;;;;;27.33;18.17;;;;;;;8.84;74.46;98607.03;4834043;29;100732;-80
2023/12/13 13:34:20;;;;;;;30.63;18.58;;;;;;;8.71;74.73;98610.38;4845749;29;96849;-80
2023/12/13 13:36:54;;;;;;;31.13;19.38;;;;;;;8.62;75.11;98609.09;4848597;29;96894;-80
2023/12/13 13:39:20;;;;;;;31.50;20.40;;;;;;;8.77;74.81;98608.28;4833044;29;100882;-80
2023/12/13 13:41:45;;;;;;;34.75;19.67;;;;;;;8.81;74.65;98601.97;4837113;29;101580;-80
2023/12/13 13:44:14;;;;;;;30.02;19.40;;;;;;;8.82;74.33;98608.03;4835118;29;96794;-80
2023/12/13 13:46:40;;;;;;;32.58;19.88;;;;;;;8.82;74.42;98616.72;4821422;29;96845;-80
2023/12/13 13:49:05;;;;;;;29.63;19.08;;;;;;;8.72;74.57;98620.75;4831541;29;101379;-80
2023/12/13 13:51:31;;;;;;;28.65;18.30;;;;;;;8.76;74.79;98618.84;4857038;29;98098;-80
2023/12/13 13:53:59;;;;;;;28.92;18.98;;;;;;;8.80;74.32;98617.75;4831686;29;96874;-80
2023/12/13 16:13:55;;;;;;;40.55;25.27;;;;;;;9.04;73.26;98705.38;4972791;23;97551;-79
2023/12/13 16:16:20;;;;;;;38.80;24.55;;;;;;;9.00;73.38;98709.09;4836693;29;96804;-79
2023/12/13 16:18:46;;;;;;;39.45;24.77;;;;;;;9.00;73.06;98709.09;4810260;29;96859;-79
2023/12/13 16:21:13;;;;;;;40.58;25.98;;;;;;;9.11;73.10;98713.78;4841302;29;101476;-80
2023/12/13 16:23:39;;;;;;;41.97;27.52;;;;;;;9.19;72.15;98708.97;4831521;29;98075;-80
2023/12/13 16:26:08;;;;;;;45.25;27.83;;;;;;;9.17;72.71;98713.44;4852368;29;96780;-80
2023/12/13 16:28:34;;;;;;;42.50;27.48;;;;;;;9.13;72.64;98708.44;4828477;29;96934;-80
2023/12/13 16:30:59;;;;;;;47.85;28.83;;;;;;;9.08;72.84;98716.56;4841511;29;102008;-80
2023/12/13 16:33:27;;;;;;;42.67;26.65;;;;;;;9.12;73.18;98719.84;4822407;29;101209;-80
2023/12/13 16:35:52;;;;;;;43.88;29.02;;;;;;;8.97;73.28;98718.91;4838385;29;96864;-80
2023/12/13 16:38:20;;;;;;;44.72;30.02;;;;;;;8.91;73.05;98716.59;4831308;29;96851;-80
2023/12/13 16:40:46;;;;;;;40.53;27.95;;;;;;;9.05;73.23;98717.56;4818418;29;101013;-80
2023/12/13 16:43:13;;;;;;;45.20;28.13;;;;;;;9.10;72.76;98721.69;4825888;29;100513;-80
2023/12/13 16:45:59;;;;;;;41.85;27.60;;;;;;;9.02;73.59;98725.59;4809675;29;96805;-80
2023/12/13 16:48:25;;;;;;;37.72;24.85;;;;;;;9.05;73.01;98722.81;4813087;29;96904;-80
2023/12/13 16:50:51;;;;;;;38.13;26.08;;;;;;;9.13;72.91;98713.69;4822588;29;101960;-81
2023/12/13 16:53:16;;;;;;;47.75;28.38;;;;;;;9.07;73.16;98720.09;4810023;29;100025;-80
2023/12/13 16:55:42;;;;;;;48.58;29.52;;;;;;;8.93;73.66;98715.59;4812089;29;96836;-80
2023/12/13 16:58:07;;;;;;;44.85;29.15;;;;;;;8.98;73.54;98718.81;4831697;29;96904;-80
2023/12/13 17:00:33;;;;;;;48.92;30.75;;;;;;;8.98;73.54;98721.41;4837157;29;101494;-80